tokyoworkspace.com alexa rank chart, tokyoworkspace.com alexa rank daily changes

tokyoworkspace.com alexa rank chart, tokyoworkspace.com alexa rank daily changes

tokyoworkspace.com
Actual rank:
211 588

RANK HISTORY

Date Rank Diff
2017/12/13 211 588 +535
2017/12/12 211 053 +7 999
2017/12/11 203 054 -701
2017/12/10 203 755 +8 377
2017/12/09 195 378 -419
2017/12/08 195 797 -234
2017/12/07 196 031 -7 079
2017/12/06 203 110 -9 147
2017/12/05 212 257 -503
2017/12/04 212 760 +6 572
2017/12/03 206 188 +12 433
2017/12/02 193 755 -14 768
2017/12/01 208 523 -5 398
2017/11/30 213 921 +1 205
2017/11/29 212 716 +4 129
2017/11/28 208 587 +3 286
2017/11/27 205 301 +8 259
2017/11/26 197 042 -2
2017/11/25 197 044 -310
2017/11/24 197 354 -7 919
2017/11/23 205 273 -13 701
2017/11/22 218 974 +11 588
2017/11/21 207 386 -584
2017/11/20 207 970 -810
2017/11/19 208 780 -11 357
2017/11/18 220 137 -14 045
2017/11/17 234 182 -14 610
2017/11/16 248 792 -14 587
2017/11/15 263 379 -19 429
2017/11/14 282 808 -666
2017/11/13 283 474 +17 298
2017/11/12 266 176 -16 776
2017/11/11 282 952 +39
2017/11/10 282 913 -19 537
2017/11/09 302 450 +1 346
2017/11/08 301 104 +799
2017/11/07 300 305 +24 680
2017/11/06 275 625 -448
2017/11/05 276 073 +16 785
2017/11/04 259 288 -12 697
2017/11/03 271 985 -25 998
2017/11/02 297 983 +363
2017/11/01 297 620 -14 986
2017/10/31 312 606 +27 552
2017/10/30 285 054 -24 299
2017/10/29 309 353 -34 089
2017/10/28 343 442 -57 261
2017/10/27 400 703 -19 814
2017/10/26 420 517 +1 463
2017/10/25 419 054 +1 883
2017/10/24 417 171 -1 373
2017/10/23 418 544 +28 440
2017/10/22 390 104 -21 200
2017/10/21 411 304 -245
2017/10/20 411 549 -406
2017/10/19 411 955 +1 530
2017/10/18 410 425 +1 676
2017/10/17 408 749 -1 269
2017/10/16 410 018 +50 699
2017/10/14 359 319

WIDGET FOR YOUR SITE

DOMAINS WITH THE NEAREST RANK

Domain Rank
weatheravenue.com 211 583
staedte-info.net 211 584
shgpi.edu.ru 211 585
kiosked.com 211 586
cortinadecor.com 211 587
tokyoworkspace.com 211 588
worldofvolley.com 211 589
ezbit.me 211 590
travian.com.hr 211 591
freebestads.com 211 592
maximkorea.net 211 593

DOMAINS WITH THE NEAREST RANK BY TLD .com

Domain Rank
dbmci.com 211 579
blazinrewards.com 211 581
weatheravenue.com 211 583
kiosked.com 211 586
cortinadecor.com 211 587
tokyoworkspace.com 211 588
worldofvolley.com 211 589
freebestads.com 211 592
maxpapers.com 211 594
balkanviator.com 211 595
wapotv.com 211 597